Urbana, IA (52345)

7:23 PM CST on December 05, 2016 (GMT -0600)
Richland Heights Area | | Change Station

Elev 920 ft 42.22 °N, 91.88 °W | Updated 3 minutes ago

Overcast
Overcast
33.0 °F
Feels Like 22 °F
N
18.0
Wind Variable Wind from SE
Gusts 24.0 mph

Today
High -- | Low -- °F
--% Chance of Precip.
Yesterday
High -- | Low -- °F
Precip. -- in
Pressure 29.81 in
Visibility 5.0 miles
Clouds Overcast 500 ft
Windchill 22 °F
Dew Point 32 °F
Humidity 95%
Rainfall in
Snow Depth Not available.
7:21 AM 4:35 PM
Waxing Crescent, 36% visible
METAR KVTI 060115Z AUTO 15015G21KT 5SM BR OVC005 02/01 A2981 RMK AO2
Pressure 29.81 in
Visibility 5.0 miles
Clouds Overcast 500 ft
Windchill 22 °F
Dew Point 32 °F
Humidity 95%
Rainfall in
Snow Depth Not available.
7:21 AM 4:35 PM
Waxing Crescent, 36% visible
METAR KVTI 060115Z AUTO 15015G21KT 5SM BR OVC005 02/01 A2981 RMK AO2

10-Day Weather Forecast

Almanac

Astronomy

Dec. 05, 2016 Rise Set
Actual Time
Civil Twilight
Nautical Twilight
Astronomical Twilight
Moon
Length of Visible Light
Length of Day
Tomorrow will be .
, % of the Moon is Illuminated

Today's Extremes

State Highs State Lows

Community

WunderPhotos

Upload Photos

1,955,893 photos uploaded!

WunderBlog® & News

Nearby

Air Quality

  Air Quality AQ Index Pollutant
Not available.

Snow Depth

Station Depth Elevation

Earthquake Activity

City Distance Mag. Time & Date
Minimum magnitude displayed is 2.5.

Coastal Water Temperatures

Place Temperature

Stations

Nearby Weather Stations

Station Location Temp. Windchill Dew Point Humidity Wind Precip. Elev Updated Type
                   

Watches & Warnings

There are currently no watches in effect.